sensor_id;sensor_type;location;lat;lon;timestamp;P1;P2;P0
27143;PMS1003;14672;50.250;8.312;2023-09-07T00:00:29;15.00;14.00;7.00
27143;PMS1003;14672;50.250;8.312;2023-09-07T00:02:55;23.75;22.75;11.00
27143;PMS1003;14672;50.250;8.312;2023-09-07T00:05:21;14.00;14.00;8.00
27143;PMS1003;14672;50.250;8.312;2023-09-07T00:07:47;13.33;13.33;7.00
27143;PMS1003;14672;50.250;8.312;2023-09-07T00:10:13;14.00;12.75;7.00
27143;PMS1003;14672;50.250;8.312;2023-09-07T00:12:39;13.33;13.33;7.00
27143;PMS1003;14672;50.250;8.312;2023-09-07T00:15:05;12.00;11.33;5.33
27143;PMS1003;14672;50.250;8.312;2023-09-07T00:17:31;13.25;12.75;7.00
27143;PMS1003;14672;50.250;8.312;2023-09-07T00:19:57;13.33;13.00;7.67
27143;PMS1003;14672;50.250;8.312;2023-09-07T00:22:23;14.00;14.00;7.00
27143;PMS1003;14672;50.250;8.312;2023-09-07T00:24:50;13.50;13.50;6.25
27143;PMS1003;14672;50.250;8.312;2023-09-07T00:27:16;16.50;16.00;10.00
27143;PMS1003;14672;50.250;8.312;2023-09-07T00:29:42;15.67;14.00;8.00
27143;PMS1003;14672;50.250;8.312;2023-09-07T00:32:11;11.75;11.75;7.00
27143;PMS1003;14672;50.250;8.312;2023-09-07T00:34:36;13.33;13.00;5.00
27143;PMS1003;14672;50.250;8.312;2023-09-07T00:37:02;14.33;14.33;5.33
27143;PMS1003;14672;50.250;8.312;2023-09-07T00:39:28;13.50;13.00;7.00
27143;PMS1003;14672;50.250;8.312;2023-09-07T00:41:54;11.00;11.00;5.00
27143;PMS1003;14672;50.250;8.312;2023-09-07T00:44:20;15.25;13.50;8.00
27143;PMS1003;14672;50.250;8.312;2023-09-07T00:46:46;14.00;14.00;7.00
27143;PMS1003;14672;50.250;8.312;2023-09-07T00:49:12;13.00;13.00;7.00
27143;PMS1003;14672;50.250;8.312;2023-09-07T00:51:41;17.75;16.00;7.75
27143;PMS1003;14672;50.250;8.312;2023-09-07T00:54:10;14.00;13.75;7.00
27143;PMS1003;14672;50.250;8.312;2023-09-07T00:56:36;13.00;12.50;5.00
27143;PMS1003;14672;50.250;8.312;2023-09-07T00:59:02;14.67;14.00;7.00
27143;PMS1003;14672;50.250;8.312;2023-09-07T01:01:28;11.00;11.00;5.33
27143;PMS1003;14672;50.250;8.312;2023-09-07T01:03:56;12.50;12.50;6.50
27143;PMS1003;14672;50.250;8.312;2023-09-07T01:08:55;11.00;11.00;6.25
27143;PMS1003;14672;50.250;8.312;2023-09-07T01:11:25;11.25;11.25;7.25
27143;PMS1003;14672;50.250;8.312;2023-09-07T01:13:52;13.00;13.00;7.00
27143;PMS1003;14672;50.250;8.312;2023-09-07T01:16:19;16.75;14.75;8.25
27143;PMS1003;14672;50.250;8.312;2023-09-07T01:18:46;13.00;13.00;5.50
27143;PMS1003;14672;50.250;8.312;2023-09-07T01:21:12;16.25;14.25;7.00
27143;PMS1003;14672;50.250;8.312;2023-09-07T01:23:40;13.75;13.75;7.75
27143;PMS1003;14672;50.250;8.312;2023-09-07T01:26:07;16.50;16.50;8.00
27143;PMS1003;14672;50.250;8.312;2023-09-07T01:28:35;13.00;13.00;5.75
27143;PMS1003;14672;50.250;8.312;2023-09-07T01:31:02;14.00;14.00;7.00
27143;PMS1003;14672;50.250;8.312;2023-09-07T01:33:28;15.33;15.33;7.00
27143;PMS1003;14672;50.250;8.312;2023-09-07T01:35:53;12.00;11.33;5.33
27143;PMS1003;14672;50.250;8.312;2023-09-07T01:38:19;13.00;13.00;7.00
27143;PMS1003;14672;50.250;8.312;2023-09-07T01:40:45;14.00;14.00;7.33
27143;PMS1003;14672;50.250;8.312;2023-09-07T01:43:11;11.33;11.33;7.00
27143;PMS1003;14672;50.250;8.312;2023-09-07T01:45:37;13.00;13.00;7.00
27143;PMS1003;14672;50.250;8.312;2023-09-07T01:48:03;16.33;15.67;8.33
27143;PMS1003;14672;50.250;8.312;2023-09-07T01:50:35;16.00;13.25;6.25
27143;PMS1003;14672;50.250;8.312;2023-09-07T01:53:01;15.75;14.75;6.25
27143;PMS1003;14672;50.250;8.312;2023-09-07T01:55:29;16.25;14.25;6.75
27143;PMS1003;14672;50.250;8.312;2023-09-07T01:57:58;13.25;13.25;7.00
27143;PMS1003;14672;50.250;8.312;2023-09-07T02:00:24;15.33;15.33;7.00
27143;PMS1003;14672;50.250;8.312;2023-09-07T02:02:50;14.67;12.33;6.00
27143;PMS1003;14672;50.250;8.312;2023-09-07T02:05:16;15.00;13.00;6.67
27143;PMS1003;14672;50.250;8.312;2023-09-07T02:07:42;17.67;15.67;7.00
27143;PMS1003;14672;50.250;8.312;2023-09-07T02:10:08;17.00;14.25;6.50
27143;PMS1003;14672;50.250;8.312;2023-09-07T02:12:35;15.00;14.50;6.50
27143;PMS1003;14672;50.250;8.312;2023-09-07T02:15:04;16.67;15.33;7.00
27143;PMS1003;14672;50.250;8.312;2023-09-07T02:17:30;17.25;14.50;7.50
27143;PMS1003;14672;50.250;8.312;2023-09-07T02:19:57;16.00;16.00;9.00
27143;PMS1003;14672;50.250;8.312;2023-09-07T02:22:23;15.67;13.00;6.00
27143;PMS1003;14672;50.250;8.312;2023-09-07T02:24:49;15.67;14.00;6.00
27143;PMS1003;14672;50.250;8.312;2023-09-07T02:27:14;14.00;13.00;6.00
27143;PMS1003;14672;50.250;8.312;2023-09-07T02:29:40;19.00;17.50;7.50
27143;PMS1003;14672;50.250;8.312;2023-09-07T02:32:06;19.00;17.33;7.00
27143;PMS1003;14672;50.250;8.312;2023-09-07T02:34:32;14.00;14.00;7.00
27143;PMS1003;14672;50.250;8.312;2023-09-07T02:37:01;14.00;14.00;7.50
27143;PMS1003;14672;50.250;8.312;2023-09-07T02:39:28;14.50;14.50;7.00
27143;PMS1003;14672;50.250;8.312;2023-09-07T02:41:54;16.00;15.25;7.00
27143;PMS1003;14672;50.250;8.312;2023-09-07T02:44:20;15.67;15.00;9.00
27143;PMS1003;14672;50.250;8.312;2023-09-07T02:46:45;16.67;16.00;7.00
27143;PMS1003;14672;50.250;8.312;2023-09-07T02:49:12;16.00;13.00;6.50
27143;PMS1003;14672;50.250;8.312;2023-09-07T02:51:38;13.00;13.00;7.75
27143;PMS1003;14672;50.250;8.312;2023-09-07T02:54:04;12.67;12.67;7.00
27143;PMS1003;14672;50.250;8.312;2023-09-07T02:56:30;16.75;16.00;8.75
27143;PMS1003;14672;50.250;8.312;2023-09-07T02:58:56;15.67;15.33;6.67
27143;PMS1003;14672;50.250;8.312;2023-09-07T03:01:22;12.75;12.75;5.75
27143;PMS1003;14672;50.250;8.312;2023-09-07T03:03:48;16.50;15.50;6.75
27143;PMS1003;14672;50.250;8.312;2023-09-07T03:06:14;16.33;15.67;7.33
27143;PMS1003;14672;50.250;8.312;2023-09-07T03:08:44;15.75;13.50;7.00
27143;PMS1003;14672;50.250;8.312;2023-09-07T03:11:10;16.33;16.00;8.33
27143;PMS1003;14672;50.250;8.312;2023-09-07T03:13:35;13.75;13.75;7.00
27143;PMS1003;14672;50.250;8.312;2023-09-07T03:16:02;15.67;13.67;7.00
27143;PMS1003;14672;50.250;8.312;2023-09-07T03:18:29;15.50;15.50;7.00
27143;PMS1003;14672;50.250;8.312;2023-09-07T03:20:55;17.50;17.25;9.75
27143;PMS1003;14672;50.250;8.312;2023-09-07T03:23:27;18.00;15.25;9.00
27143;PMS1003;14672;50.250;8.312;2023-09-07T03:25:53;14.00;14.00;7.50
27143;PMS1003;14672;50.250;8.312;2023-09-07T03:28:19;16.00;15.00;8.33
27143;PMS1003;14672;50.250;8.312;2023-09-07T03:30:45;14.67;14.67;6.67
27143;PMS1003;14672;50.250;8.312;2023-09-07T03:33:11;18.00;18.00;9.00
27143;PMS1003;14672;50.250;8.312;2023-09-07T03:35:36;20.67;15.67;7.00
27143;PMS1003;14672;50.250;8.312;2023-09-07T03:38:03;15.50;15.25;9.25
27143;PMS1003;14672;50.250;8.312;2023-09-07T03:40:29;14.33;14.33;7.67
27143;PMS1003;14672;50.250;8.312;2023-09-07T03:42:54;15.33;15.33;8.33
27143;PMS1003;14672;50.250;8.312;2023-09-07T03:45:20;17.33;16.00;9.00
27143;PMS1003;14672;50.250;8.312;2023-09-07T03:47:46;15.00;13.00;6.33
27143;PMS1003;14672;50.250;8.312;2023-09-07T03:50:12;19.33;19.33;9.00
27143;PMS1003;14672;50.250;8.312;2023-09-07T03:52:37;20.00;20.00;9.00
27143;PMS1003;14672;50.250;8.312;2023-09-07T03:55:03;15.00;14.33;9.00
27143;PMS1003;14672;50.250;8.312;2023-09-07T03:57:30;15.00;15.00;7.50
27143;PMS1003;14672;50.250;8.312;2023-09-07T03:59:56;15.00;15.00;7.00
27143;PMS1003;14672;50.250;8.312;2023-09-07T04:02:22;17.25;16.50;9.00
27143;PMS1003;14672;50.250;8.312;2023-09-07T04:04:49;15.75;15.75;7.00
27143;PMS1003;14672;50.250;8.312;2023-09-07T04:07:16;18.25;16.75;8.00
27143;PMS1003;14672;50.250;8.312;2023-09-07T04:09:42;16.50;15.00;8.00
27143;PMS1003;14672;50.250;8.312;2023-09-07T04:12:09;21.50;19.00;8.00
27143;PMS1003;14672;50.250;8.312;2023-09-07T04:14:35;13.25;12.75;7.00
27143;PMS1003;14672;50.250;8.312;2023-09-07T04:17:02;19.25;17.50;9.00
27143;PMS1003;14672;50.250;8.312;2023-09-07T04:19:28;15.00;13.50;7.00
27143;PMS1003;14672;50.250;8.312;2023-09-07T04:21:53;18.67;17.67;11.33
27143;PMS1003;14672;50.250;8.312;2023-09-07T04:24:19;17.67;15.00;7.00
27143;PMS1003;14672;50.250;8.312;2023-09-07T04:26:45;17.00;17.00;9.00
27143;PMS1003;14672;50.250;8.312;2023-09-07T04:29:12;17.75;17.75;10.00
27143;PMS1003;14672;50.250;8.312;2023-09-07T04:31:38;15.67;15.67;10.00
27143;PMS1003;14672;50.250;8.312;2023-09-07T04:34:04;19.33;18.00;9.00
27143;PMS1003;14672;50.250;8.312;2023-09-07T04:36:30;18.00;18.00;9.00
27143;PMS1003;14672;50.250;8.312;2023-09-07T04:38:56;15.33;15.33;7.00
27143;PMS1003;14672;50.250;8.312;2023-09-07T04:41:22;18.25;17.75;9.00
27143;PMS1003;14672;50.250;8.312;2023-09-07T04:43:48;20.00;18.33;9.33
27143;PMS1003;14672;50.250;8.312;2023-09-07T04:46:14;17.33;17.00;9.00
27143;PMS1003;14672;50.250;8.312;2023-09-07T04:48:41;19.00;18.33;9.00
27143;PMS1003;14672;50.250;8.312;2023-09-07T04:51:07;19.50;18.00;9.00
27143;PMS1003;14672;50.250;8.312;2023-09-07T04:53:35;19.50;16.75;9.75
27143;PMS1003;14672;50.250;8.312;2023-09-07T04:56:02;17.25;17.25;10.75
27143;PMS1003;14672;50.250;8.312;2023-09-07T04:58:29;21.50;19.25;9.25
27143;PMS1003;14672;50.250;8.312;2023-09-07T05:01:02;20.67;18.00;10.00
27143;PMS1003;14672;50.250;8.312;2023-09-07T05:03:36;15.50;15.50;9.00
27143;PMS1003;14672;50.250;8.312;2023-09-07T05:06:02;21.50;21.00;9.75
27143;PMS1003;14672;50.250;8.312;2023-09-07T05:08:29;18.25;18.25;9.25
27143;PMS1003;14672;50.250;8.312;2023-09-07T05:10:56;18.50;17.00;9.00
27143;PMS1003;14672;50.250;8.312;2023-09-07T05:13:23;19.25;17.50;9.00
27143;PMS1003;14672;50.250;8.312;2023-09-07T05:15:50;20.00;18.25;9.25
27143;PMS1003;14672;50.250;8.312;2023-09-07T05:18:18;18.25;16.75;8.50
27143;PMS1003;14672;50.250;8.312;2023-09-07T05:20:45;19.50;17.25;9.00
27143;PMS1003;14672;50.250;8.312;2023-09-07T05:23:13;18.25;18.00;10.00
27143;PMS1003;14672;50.250;8.312;2023-09-07T05:25:51;17.75;17.75;9.50
27143;PMS1003;14672;50.250;8.312;2023-09-07T05:28:19;17.50;16.00;7.50
27143;PMS1003;14672;50.250;8.312;2023-09-07T05:30:46;19.00;17.00;9.25
27143;PMS1003;14672;50.250;8.312;2023-09-07T05:33:13;20.50;20.50;10.00
27143;PMS1003;14672;50.250;8.312;2023-09-07T05:35:41;17.00;16.75;8.00
27143;PMS1003;14672;50.250;8.312;2023-09-07T05:38:07;18.00;18.00;10.00
27143;PMS1003;14672;50.250;8.312;2023-09-07T05:40:37;18.50;18.00;9.00
27143;PMS1003;14672;50.250;8.312;2023-09-07T05:43:06;18.25;18.25;10.00
27143;PMS1003;14672;50.250;8.312;2023-09-07T05:45:33;21.00;20.00;9.00
27143;PMS1003;14672;50.250;8.312;2023-09-07T05:48:02;18.25;16.75;9.25
27143;PMS1003;14672;50.250;8.312;2023-09-07T05:50:29;18.00;17.50;9.00
27143;PMS1003;14672;50.250;8.312;2023-09-07T05:52:55;18.00;17.75;9.00
27143;PMS1003;14672;50.250;8.312;2023-09-07T05:55:20;18.00;18.00;10.00
27143;PMS1003;14672;50.250;8.312;2023-09-07T05:57:46;17.00;16.33;10.00
27143;PMS1003;14672;50.250;8.312;2023-09-07T06:00:14;16.50;16.25;10.00
27143;PMS1003;14672;50.250;8.312;2023-09-07T06:02:41;20.25;18.75;9.50
27143;PMS1003;14672;50.250;8.312;2023-09-07T06:05:09;18.75;17.25;9.25
27143;PMS1003;14672;50.250;8.312;2023-09-07T06:07:35;19.33;18.67;10.00
27143;PMS1003;14672;50.250;8.312;2023-09-07T06:10:02;21.00;18.00;9.00
27143;PMS1003;14672;50.250;8.312;2023-09-07T06:12:30;18.25;16.75;10.25
27143;PMS1003;14672;50.250;8.312;2023-09-07T06:14:57;19.50;16.75;8.75
27143;PMS1003;14672;50.250;8.312;2023-09-07T06:17:23;24.75;20.75;10.00
27143;PMS1003;14672;50.250;8.312;2023-09-07T06:19:49;23.33;21.33;10.00
27143;PMS1003;14672;50.250;8.312;2023-09-07T06:22:14;19.00;19.00;11.67
27143;PMS1003;14672;50.250;8.312;2023-09-07T06:24:40;26.33;22.00;12.00
27143;PMS1003;14672;50.250;8.312;2023-09-07T06:27:06;24.67;24.00;12.00
27143;PMS1003;14672;50.250;8.312;2023-09-07T06:29:31;21.33;18.67;11.00
27143;PMS1003;14672;50.250;8.312;2023-09-07T06:31:57;20.67;20.00;10.33
27143;PMS1003;14672;50.250;8.312;2023-09-07T06:34:23;21.00;21.00;12.67
27143;PMS1003;14672;50.250;8.312;2023-09-07T06:36:49;20.25;20.25;12.25
27143;PMS1003;14672;50.250;8.312;2023-09-07T06:39:15;19.33;19.00;10.67
27143;PMS1003;14672;50.250;8.312;2023-09-07T06:41:41;21.67;18.33;10.00
27143;PMS1003;14672;50.250;8.312;2023-09-07T06:44:07;20.00;19.67;9.00
27143;PMS1003;14672;50.250;8.312;2023-09-07T06:46:33;18.33;18.33;10.00
27143;PMS1003;14672;50.250;8.312;2023-09-07T06:48:58;19.67;19.67;10.67
27143;PMS1003;14672;50.250;8.312;2023-09-07T06:51:24;22.67;21.67;11.00
27143;PMS1003;14672;50.250;8.312;2023-09-07T06:53:50;17.67;17.67;10.00
27143;PMS1003;14672;50.250;8.312;2023-09-07T06:56:15;23.00;22.67;11.00
27143;PMS1003;14672;50.250;8.312;2023-09-07T06:58:41;21.00;20.33;10.67
27143;PMS1003;14672;50.250;8.312;2023-09-07T07:01:07;18.00;18.00;11.00
27143;PMS1003;14672;50.250;8.312;2023-09-07T07:03:36;19.00;19.00;10.75
27143;PMS1003;14672;50.250;8.312;2023-09-07T07:06:01;18.33;18.33;9.67
27143;PMS1003;14672;50.250;8.312;2023-09-07T07:08:27;20.33;18.67;11.00
27143;PMS1003;14672;50.250;8.312;2023-09-07T07:10:53;19.00;18.33;10.00
27143;PMS1003;14672;50.250;8.312;2023-09-07T07:13:20;19.25;17.75;8.50
27143;PMS1003;14672;50.250;8.312;2023-09-07T07:15:46;23.33;21.00;10.00
27143;PMS1003;14672;50.250;8.312;2023-09-07T07:18:12;22.00;21.33;10.00
27143;PMS1003;14672;50.250;8.312;2023-09-07T07:20:38;21.00;19.33;10.00
27143;PMS1003;14672;50.250;8.312;2023-09-07T07:23:05;20.00;17.50;9.00
27143;PMS1003;14672;50.250;8.312;2023-09-07T07:25:34;18.50;18.50;9.00
27143;PMS1003;14672;50.250;8.312;2023-09-07T07:28:00;20.75;19.50;11.00
27143;PMS1003;14672;50.250;8.312;2023-09-07T07:30:30;18.00;18.00;9.00
27143;PMS1003;14672;50.250;8.312;2023-09-07T07:32:57;16.75;16.50;8.25
27143;PMS1003;14672;50.250;8.312;2023-09-07T07:35:23;17.67;16.33;9.00
27143;PMS1003;14672;50.250;8.312;2023-09-07T07:37:51;22.00;20.67;11.00
27143;PMS1003;14672;50.250;8.312;2023-09-07T07:40:17;20.75;18.25;8.75
27143;PMS1003;14672;50.250;8.312;2023-09-07T07:42:45;19.00;17.25;8.25
27143;PMS1003;14672;50.250;8.312;2023-09-07T07:45:12;17.75;16.75;9.50
27143;PMS1003;14672;50.250;8.312;2023-09-07T07:47:42;19.00;18.00;8.25
27143;PMS1003;14672;50.250;8.312;2023-09-07T07:50:08;19.00;19.00;11.25
27143;PMS1003;14672;50.250;8.312;2023-09-07T07:52:34;23.25;19.75;9.00
27143;PMS1003;14672;50.250;8.312;2023-09-07T07:55:00;16.00;16.00;8.00
27143;PMS1003;14672;50.250;8.312;2023-09-07T07:57:25;20.33;18.00;9.00
27143;PMS1003;14672;50.250;8.312;2023-09-07T07:59:51;22.00;21.67;10.67
27143;PMS1003;14672;50.250;8.312;2023-09-07T08:02:17;20.33;20.00;9.00
27143;PMS1003;14672;50.250;8.312;2023-09-07T08:04:43;20.00;20.00;11.67
27143;PMS1003;14672;50.250;8.312;2023-09-07T08:07:08;20.67;19.00;9.33
27143;PMS1003;14672;50.250;8.312;2023-09-07T08:09:34;17.33;17.33;8.00
27143;PMS1003;14672;50.250;8.312;2023-09-07T08:12:00;17.75;17.50;9.50
27143;PMS1003;14672;50.250;8.312;2023-09-07T08:14:27;18.75;17.00;10.00
27143;PMS1003;14672;50.250;8.312;2023-09-07T08:16:53;17.25;16.50;10.00
27143;PMS1003;14672;50.250;8.312;2023-09-07T08:19:19;20.75;20.75;11.50
27143;PMS1003;14672;50.250;8.312;2023-09-07T08:21:45;19.67;19.33;10.00
27143;PMS1003;14672;50.250;8.312;2023-09-07T08:24:11;17.67;17.67;10.33
27143;PMS1003;14672;50.250;8.312;2023-09-07T08:26:38;21.00;19.75;10.00
27143;PMS1003;14672;50.250;8.312;2023-09-07T08:29:04;17.50;17.50;9.25
27143;PMS1003;14672;50.250;8.312;2023-09-07T08:31:40;20.00;17.75;11.50
27143;PMS1003;14672;50.250;8.312;2023-09-07T08:34:06;20.00;18.25;10.00
27143;PMS1003;14672;50.250;8.312;2023-09-07T08:36:40;20.25;19.75;10.00
27143;PMS1003;14672;50.250;8.312;2023-09-07T08:39:06;16.50;16.50;9.00
27143;PMS1003;14672;50.250;8.312;2023-09-07T08:41:38;18.00;17.00;9.00
27143;PMS1003;14672;50.250;8.312;2023-09-07T08:44:09;20.50;20.00;9.50
27143;PMS1003;14672;50.250;8.312;2023-09-07T08:46:36;17.50;16.75;10.25
27143;PMS1003;14672;50.250;8.312;2023-09-07T08:49:03;18.50;17.25;10.25
27143;PMS1003;14672;50.250;8.312;2023-09-07T08:51:30;19.75;19.25;10.75
27143;PMS1003;14672;50.250;8.312;2023-09-07T08:53:59;18.50;18.50;10.00
27143;PMS1003;14672;50.250;8.312;2023-09-07T08:56:26;19.00;16.00;8.75
27143;PMS1003;14672;50.250;8.312;2023-09-07T08:58:51;22.00;20.00;10.00
27143;PMS1003;14672;50.250;8.312;2023-09-07T09:01:17;19.00;19.00;11.00
27143;PMS1003;14672;50.250;8.312;2023-09-07T09:03:46;16.75;16.50;9.50
27143;PMS1003;14672;50.250;8.312;2023-09-07T09:06:17;19.25;19.25;10.00
27143;PMS1003;14672;50.250;8.312;2023-09-07T09:08:49;20.50;19.50;10.75
27143;PMS1003;14672;50.250;8.312;2023-09-07T09:11:22;16.50;15.50;10.00
27143;PMS1003;14672;50.250;8.312;2023-09-07T09:13:51;16.00;16.00;8.75
27143;PMS1003;14672;50.250;8.312;2023-09-07T09:16:19;16.75;16.25;8.25
27143;PMS1003;14672;50.250;8.312;2023-09-07T09:18:52;16.00;16.00;9.75
27143;PMS1003;14672;50.250;8.312;2023-09-07T09:21:23;18.50;17.75;10.75
27143;PMS1003;14672;50.250;8.312;2023-09-07T09:23:53;19.00;18.25;8.25
27143;PMS1003;14672;50.250;8.312;2023-09-07T09:26:22;17.00;17.00;11.00
27143;PMS1003;14672;50.250;8.312;2023-09-07T09:28:48;17.75;17.75;11.25
27143;PMS1003;14672;50.250;8.312;2023-09-07T09:31:17;16.25;15.00;8.25
27143;PMS1003;14672;50.250;8.312;2023-09-07T09:33:47;16.67;16.67;8.67
27143;PMS1003;14672;50.250;8.312;2023-09-07T09:36:16;16.50;15.75;9.50
27143;PMS1003;14672;50.250;8.312;2023-09-07T09:38:46;14.75;14.75;8.75
27143;PMS1003;14672;50.250;8.312;2023-09-07T09:41:19;19.50;16.00;9.00
27143;PMS1003;14672;50.250;8.312;2023-09-07T09:43:48;17.50;16.75;9.00
27143;PMS1003;14672;50.250;8.312;2023-09-07T09:46:16;14.75;14.75;8.75
27143;PMS1003;14672;50.250;8.312;2023-09-07T09:48:43;15.00;15.00;8.00
27143;PMS1003;14672;50.250;8.312;2023-09-07T09:51:10;14.50;14.00;8.00
27143;PMS1003;14672;50.250;8.312;2023-09-07T09:53:38;13.00;13.00;8.00
27143;PMS1003;14672;50.250;8.312;2023-09-07T09:56:04;16.50;15.50;8.25
27143;PMS1003;14672;50.250;8.312;2023-09-07T09:58:30;18.50;17.00;9.00
27143;PMS1003;14672;50.250;8.312;2023-09-07T10:00:58;15.67;15.67;8.00
27143;PMS1003;14672;50.250;8.312;2023-09-07T10:03:29;14.75;13.50;9.00
27143;PMS1003;14672;50.250;8.312;2023-09-07T10:06:08;15.33;15.33;8.67
27143;PMS1003;14672;50.250;8.312;2023-09-07T10:08:35;14.25;14.25;9.00
27143;PMS1003;14672;50.250;8.312;2023-09-07T10:11:06;13.67;12.33;8.67
27143;PMS1003;14672;50.250;8.312;2023-09-07T10:13:36;14.75;14.75;9.00
27143;PMS1003;14672;50.250;8.312;2023-09-07T10:16:03;12.33;12.33;6.00
27143;PMS1003;14672;50.250;8.312;2023-09-07T10:18:34;15.25;14.75;9.25
27143;PMS1003;14672;50.250;8.312;2023-09-07T10:21:04;13.50;13.50;7.00
27143;PMS1003;14672;50.250;8.312;2023-09-07T10:23:35;15.00;15.00;8.00
27143;PMS1003;14672;50.250;8.312;2023-09-07T10:26:13;13.00;12.75;7.25
27143;PMS1003;14672;50.250;8.312;2023-09-07T10:28:41;14.75;14.75;7.75
27143;PMS1003;14672;50.250;8.312;2023-09-07T10:31:15;12.75;12.00;7.00
27143;PMS1003;14672;50.250;8.312;2023-09-07T10:33:50;14.25;14.25;8.00
27143;PMS1003;14672;50.250;8.312;2023-09-07T10:36:26;12.67;12.67;7.00
27143;PMS1003;14672;50.250;8.312;2023-09-07T10:38:54;15.75;14.75;7.75
27143;PMS1003;14672;50.250;8.312;2023-09-07T10:41:22;14.50;14.50;8.50
27143;PMS1003;14672;50.250;8.312;2023-09-07T10:43:48;14.00;13.75;7.50
27143;PMS1003;14672;50.250;8.312;2023-09-07T10:46:20;13.75;13.00;8.50
27143;PMS1003;14672;50.250;8.312;2023-09-07T10:48:51;13.25;13.25;8.00
27143;PMS1003;14672;50.250;8.312;2023-09-07T10:51:18;12.00;12.00;7.25
27143;PMS1003;14672;50.250;8.312;2023-09-07T10:53:45;15.00;14.75;8.00
27143;PMS1003;14672;50.250;8.312;2023-09-07T10:56:11;15.00;15.00;9.00
27143;PMS1003;14672;50.250;8.312;2023-09-07T10:58:37;14.25;14.25;8.00
27143;PMS1003;14672;50.250;8.312;2023-09-07T11:01:08;13.75;13.00;7.50
27143;PMS1003;14672;50.250;8.312;2023-09-07T11:03:35;13.00;13.00;9.00
27143;PMS1003;14672;50.250;8.312;2023-09-07T11:06:09;12.00;12.00;8.00
27143;PMS1003;14672;50.250;8.312;2023-09-07T11:08:36;13.25;12.75;7.25
27143;PMS1003;14672;50.250;8.312;2023-09-07T11:11:02;12.67;12.67;8.00
27143;PMS1003;14672;50.250;8.312;2023-09-07T11:13:28;14.33;14.00;7.67
27143;PMS1003;14672;50.250;8.312;2023-09-07T11:15:58;15.00;15.00;9.00
27143;PMS1003;14672;50.250;8.312;2023-09-07T11:18:25;12.25;12.25;7.00
27143;PMS1003;14672;50.250;8.312;2023-09-07T11:20:51;14.75;14.00;8.00
27143;PMS1003;14672;50.250;8.312;2023-09-07T11:23:19;14.00;14.00;8.50
27143;PMS1003;14672;50.250;8.312;2023-09-07T11:25:47;12.75;12.75;8.00
27143;PMS1003;14672;50.250;8.312;2023-09-07T11:28:15;13.50;13.25;9.00
27143;PMS1003;14672;50.250;8.312;2023-09-07T11:30:49;13.75;13.75;9.00
27143;PMS1003;14672;50.250;8.312;2023-09-07T11:33:20;13.75;13.75;8.25
27143;PMS1003;14672;50.250;8.312;2023-09-07T11:35:49;15.25;14.50;10.00
27143;PMS1003;14672;50.250;8.312;2023-09-07T11:38:17;15.00;14.50;10.00
27143;PMS1003;14672;50.250;8.312;2023-09-07T11:40:43;15.75;15.25;9.50
27143;PMS1003;14672;50.250;8.312;2023-09-07T11:43:16;11.75;11.75;8.25
27143;PMS1003;14672;50.250;8.312;2023-09-07T11:45:46;13.50;13.50;8.50
27143;PMS1003;14672;50.250;8.312;2023-09-07T11:48:12;14.00;14.00;8.25
27143;PMS1003;14672;50.250;8.312;2023-09-07T11:50:38;14.00;14.00;8.67
27143;PMS1003;14672;50.250;8.312;2023-09-07T11:53:05;15.00;14.75;8.25
27143;PMS1003;14672;50.250;8.312;2023-09-07T11:55:32;14.50;14.50;9.25
27143;PMS1003;14672;50.250;8.312;2023-09-07T11:58:00;16.00;15.25;9.25
27143;PMS1003;14672;50.250;8.312;2023-09-07T12:00:30;13.00;13.00;8.25
27143;PMS1003;14672;50.250;8.312;2023-09-07T12:02:56;13.50;13.50;8.00
27143;PMS1003;14672;50.250;8.312;2023-09-07T12:05:23;14.75;14.75;10.00
27143;PMS1003;14672;50.250;8.312;2023-09-07T12:07:49;15.00;14.75;10.50
27143;PMS1003;14672;50.250;8.312;2023-09-07T12:10:15;12.75;12.75;8.00
27143;PMS1003;14672;50.250;8.312;2023-09-07T12:12:41;14.00;14.00;9.00
27143;PMS1003;14672;50.250;8.312;2023-09-07T12:15:11;14.25;13.50;8.75
27143;PMS1003;14672;50.250;8.312;2023-09-07T12:17:37;13.00;12.33;8.00
27143;PMS1003;14672;50.250;8.312;2023-09-07T12:20:03;13.25;13.25;8.75
27143;PMS1003;14672;50.250;8.312;2023-09-07T12:22:36;13.75;13.75;8.75
27143;PMS1003;14672;50.250;8.312;2023-09-07T12:25:05;15.25;14.50;8.00
27143;PMS1003;14672;50.250;8.312;2023-09-07T12:27:35;15.00;14.00;7.75
27143;PMS1003;14672;50.250;8.312;2023-09-07T12:30:01;12.75;12.75;9.00
27143;PMS1003;14672;50.250;8.312;2023-09-07T12:32:31;12.75;12.75;7.25
27143;PMS1003;14672;50.250;8.312;2023-09-07T12:34:57;12.50;12.50;7.75
27143;PMS1003;14672;50.250;8.312;2023-09-07T12:37:24;11.50;11.25;7.00
27143;PMS1003;14672;50.250;8.312;2023-09-07T12:39:50;13.33;13.00;7.67
27143;PMS1003;14672;50.250;8.312;2023-09-07T12:42:16;11.75;11.50;7.00
27143;PMS1003;14672;50.250;8.312;2023-09-07T12:44:43;11.00;11.00;6.75
27143;PMS1003;14672;50.250;8.312;2023-09-07T12:47:09;10.50;10.50;7.00
27143;PMS1003;14672;50.250;8.312;2023-09-07T12:49:35;13.00;13.00;7.00
27143;PMS1003;14672;50.250;8.312;2023-09-07T12:52:01;13.33;13.33;7.67
27143;PMS1003;14672;50.250;8.312;2023-09-07T12:54:33;12.50;12.00;6.25
27143;PMS1003;14672;50.250;8.312;2023-09-07T12:57:00;12.00;12.00;7.00
27143;PMS1003;14672;50.250;8.312;2023-09-07T12:59:26;11.00;11.00;7.00
27143;PMS1003;14672;50.250;8.312;2023-09-07T13:01:53;11.00;11.00;6.75
27143;PMS1003;14672;50.250;8.312;2023-09-07T13:04:21;12.00;12.00;8.00
27143;PMS1003;14672;50.250;8.312;2023-09-07T13:06:47;14.00;14.00;7.00
27143;PMS1003;14672;50.250;8.312;2023-09-07T13:09:13;11.00;11.00;7.33
27143;PMS1003;14672;50.250;8.312;2023-09-07T13:11:38;12.67;12.67;7.33
27143;PMS1003;14672;50.250;8.312;2023-09-07T13:14:04;11.67;11.33;6.67
27143;PMS1003;14672;50.250;8.312;2023-09-07T13:16:31;12.75;12.75;8.00
27143;PMS1003;14672;50.250;8.312;2023-09-07T13:18:57;12.25;11.50;7.00
27143;PMS1003;14672;50.250;8.312;2023-09-07T13:21:23;12.50;12.00;6.75
27143;PMS1003;14672;50.250;8.312;2023-09-07T13:23:49;13.00;12.00;7.00
27143;PMS1003;14672;50.250;8.312;2023-09-07T13:26:15;12.00;12.00;7.00
27143;PMS1003;14672;50.250;8.312;2023-09-07T13:28:41;12.00;12.00;7.33
27143;PMS1003;14672;50.250;8.312;2023-09-07T13:31:06;12.00;12.00;7.67
27143;PMS1003;14672;50.250;8.312;2023-09-07T13:33:32;13.00;13.00;8.33
27143;PMS1003;14672;50.250;8.312;2023-09-07T13:35:58;12.00;12.00;7.00
27143;PMS1003;14672;50.250;8.312;2023-09-07T13:38:24;10.00;10.00;6.00
27143;PMS1003;14672;50.250;8.312;2023-09-07T13:40:49;12.00;12.00;7.00
27143;PMS1003;14672;50.250;8.312;2023-09-07T13:43:15;10.67;10.67;6.00
27143;PMS1003;14672;50.250;8.312;2023-09-07T13:45:41;12.00;12.00;8.00
27143;PMS1003;14672;50.250;8.312;2023-09-07T13:48:07;12.00;12.00;7.00
27143;PMS1003;14672;50.250;8.312;2023-09-07T13:50:33;13.33;12.00;7.00
27143;PMS1003;14672;50.250;8.312;2023-09-07T13:52:59;12.00;10.00;5.67
27143;PMS1003;14672;50.250;8.312;2023-09-07T13:55:25;12.00;12.00;7.00
27143;PMS1003;14672;50.250;8.312;2023-09-07T13:57:50;12.67;12.33;6.67